createdAt,value
2019-04-04T00:02:06.196Z,19.80
2019-04-04T00:07:08.102Z,19.80
2019-04-04T00:12:10.001Z,19.80
2019-04-04T00:17:11.801Z,19.80
2019-04-04T00:22:13.713Z,19.70
2019-04-04T00:27:15.311Z,19.70
2019-04-04T00:32:16.915Z,19.70
2019-04-04T00:37:18.491Z,19.70
2019-04-04T00:42:20.183Z,19.70
2019-04-04T00:47:21.828Z,19.70
2019-04-04T00:52:23.369Z,19.70
2019-04-04T00:57:24.959Z,19.70
2019-04-04T01:02:27.570Z,19.70
2019-04-04T01:07:29.594Z,19.70
2019-04-04T01:12:31.177Z,19.70
2019-04-04T01:17:35.110Z,19.60
2019-04-04T01:22:37.415Z,19.60
2019-04-04T01:27:39.189Z,19.60
2019-04-04T01:32:40.859Z,19.50
2019-04-04T01:37:42.530Z,19.50
2019-04-04T01:42:44.201Z,19.50
2019-04-04T01:47:45.972Z,19.50
2019-04-04T01:52:49.003Z,19.50
2019-04-04T01:57:50.561Z,19.50
2019-04-04T02:02:52.533Z,19.50
2019-04-04T02:07:55.275Z,19.50
2019-04-04T02:12:56.812Z,19.50
2019-04-04T02:17:58.383Z,19.40
2019-04-04T02:23:01.303Z,19.40
2019-04-04T02:28:03.436Z,19.40
2019-04-04T02:33:05.064Z,19.40
2019-04-04T02:38:06.643Z,19.40
2019-04-04T02:43:08.187Z,19.40
2019-04-04T02:48:09.701Z,19.40
2019-04-04T02:53:11.304Z,19.40
2019-04-04T02:58:14.970Z,19.40
2019-04-04T03:03:16.219Z,19.40
2019-04-04T03:08:17.929Z,19.40
2019-04-04T03:13:19.601Z,19.40
2019-04-04T03:18:21.092Z,19.40
2019-04-04T03:23:22.571Z,19.30
2019-04-04T03:28:24.129Z,19.30
2019-04-04T03:33:31.267Z,19.30
2019-04-04T03:38:28.979Z,19.30
2019-04-04T03:43:30.439Z,19.30
2019-04-04T03:48:31.935Z,19.30
2019-04-04T03:53:33.787Z,19.30
2019-04-04T03:58:36.495Z,19.30
2019-04-04T04:03:38.049Z,19.30
2019-04-04T04:08:39.516Z,19.30
2019-04-04T04:13:40.981Z,19.30
2019-04-04T04:18:42.454Z,19.30
2019-04-04T04:23:49.538Z,19.30
2019-04-04T04:28:52.216Z,19.40
2019-04-04T04:33:50.603Z,19.40
2019-04-04T04:38:52.185Z,19.50
2019-04-04T04:43:55.706Z,19.60
2019-04-04T04:48:57.203Z,19.60
2019-04-04T04:53:58.712Z,19.60
2019-04-04T04:59:01.872Z,19.60
2019-04-04T05:04:03.335Z,19.80
2019-04-04T05:09:05.238Z,19.80
2019-04-04T05:14:06.975Z,20.00
2019-04-04T05:19:08.455Z,20.20
2019-04-04T05:24:10.213Z,20.30
2019-04-04T05:29:13.956Z,20.30
2019-04-04T05:34:15.190Z,20.30
2019-04-04T05:39:18.027Z,20.40
2019-04-04T05:44:19.976Z,20.40
2019-04-04T05:49:21.447Z,20.30
2019-04-04T05:54:23.103Z,20.30
2019-04-04T05:59:24.670Z,20.30
2019-04-04T06:04:27.286Z,20.30
2019-04-04T06:09:28.767Z,20.30
2019-04-04T06:14:30.684Z,20.30
2019-04-04T06:19:32.227Z,20.30
2019-04-04T06:24:33.843Z,20.20
2019-04-04T06:29:35.348Z,20.20
2019-04-04T06:34:36.823Z,20.20
2019-04-04T06:39:38.343Z,20.20
2019-04-04T06:44:40.015Z,20.20
2019-04-04T06:49:41.608Z,20.20
2019-04-04T06:54:43.157Z,20.20
2019-04-04T06:59:44.743Z,20.10
2019-04-04T07:04:46.312Z,20.10
2019-04-04T07:09:48.271Z,20.20
2019-04-04T07:14:52.839Z,20.10
2019-04-04T07:19:54.295Z,20.20
2019-04-04T07:24:55.843Z,20.20
2019-04-04T07:29:57.447Z,20.20
2019-04-04T07:34:59.179Z,20.20
2019-04-04T07:40:03.241Z,20.20
2019-04-04T07:45:05.285Z,20.20
2019-04-04T07:50:06.879Z,20.20
2019-04-04T07:55:10.925Z,20.20
2019-04-04T08:00:11.936Z,20.20
2019-04-04T08:05:13.531Z,20.20
2019-04-04T08:10:20.896Z,20.20
2019-04-04T08:15:18.588Z,20.20
2019-04-04T08:20:20.572Z,20.20
2019-04-04T08:25:22.445Z,20.20
2019-04-04T08:30:24.306Z,20.20
2019-04-04T08:35:26.136Z,20.20
2019-04-04T08:40:27.752Z,20.20
2019-04-04T08:45:29.328Z,20.20
2019-04-04T08:50:30.750Z,20.20
2019-04-04T08:55:32.465Z,20.20
2019-04-04T09:00:34.068Z,20.30
2019-04-04T09:05:35.543Z,20.20
2019-04-04T09:10:37.273Z,20.30
2019-04-04T09:15:38.778Z,20.30
2019-04-04T09:20:40.308Z,20.30
2019-04-04T09:25:42.752Z,20.30
2019-04-04T09:30:45.439Z,20.30
2019-04-04T09:35:46.937Z,20.30
2019-04-04T09:40:48.526Z,20.30
2019-04-04T09:45:50.026Z,20.30
2019-04-04T09:50:51.629Z,20.30
2019-04-04T09:55:53.106Z,20.30
2019-04-04T10:00:54.619Z,20.30
2019-04-04T10:05:56.266Z,20.30
2019-04-04T10:10:57.833Z,20.30
2019-04-04T10:16:00.464Z,20.30
2019-04-04T10:21:11.884Z,20.40
2019-04-04T10:26:05.555Z,20.40
2019-04-04T10:31:07.071Z,20.40
2019-04-04T10:36:08.783Z,20.40
2019-04-04T10:41:10.555Z,20.40
2019-04-04T10:46:14.159Z,20.40
2019-04-04T10:51:15.528Z,20.40
2019-04-04T10:56:17.070Z,20.40
2019-04-04T11:01:18.588Z,20.40
2019-04-04T11:06:20.207Z,20.50
2019-04-04T11:11:21.904Z,20.50
2019-04-04T11:16:30.164Z,20.50
2019-04-04T11:21:28.625Z,20.50
2019-04-04T11:26:30.000Z,20.50
2019-04-04T11:31:31.555Z,20.50
2019-04-04T11:36:33.099Z,20.50
2019-04-04T11:41:35.714Z,20.50
2019-04-04T11:46:38.253Z,20.50
2019-04-04T11:51:39.749Z,20.50
2019-04-04T11:56:41.318Z,20.50
2019-04-04T12:01:44.642Z,20.50
2019-04-04T12:06:46.227Z,20.50
2019-04-04T12:11:47.763Z,20.50
2019-04-04T12:16:49.234Z,20.50
2019-04-04T12:21:50.799Z,20.50
2019-04-04T12:26:52.307Z,20.50
2019-04-04T12:31:53.832Z,20.60
2019-04-04T12:36:55.300Z,20.50
2019-04-04T12:41:56.892Z,20.60
2019-04-04T12:46:58.566Z,20.60
2019-04-04T12:52:00.075Z,20.50
2019-04-04T12:57:01.674Z,20.60
2019-04-04T13:02:03.320Z,20.60
2019-04-04T13:07:05.120Z,20.60
2019-04-04T13:12:06.710Z,20.50
2019-04-04T13:17:10.135Z,20.50
2019-04-04T13:22:11.599Z,20.60
2019-04-04T13:27:13.337Z,20.50
2019-04-04T13:32:14.791Z,20.60
2019-04-04T13:37:16.369Z,20.50
2019-04-04T13:42:17.863Z,20.60
2019-04-04T13:47:19.376Z,20.50
2019-04-04T13:52:20.974Z,20.60
2019-04-04T13:57:22.675Z,20.60
2019-04-04T14:02:24.170Z,20.50
2019-04-04T14:07:26.161Z,20.50
2019-04-04T14:12:29.351Z,20.50
2019-04-04T14:17:30.975Z,20.60
2019-04-04T14:22:33.599Z,20.60
2019-04-04T14:27:35.562Z,20.70
2019-04-04T14:32:37.176Z,20.70
2019-04-04T14:37:38.786Z,20.70
2019-04-04T14:42:40.312Z,20.80
2019-04-04T14:47:42.032Z,20.70
2019-04-04T14:52:43.539Z,20.80
2019-04-04T14:57:45.075Z,20.80
2019-04-04T15:02:46.591Z,20.80
2019-04-04T15:07:48.251Z,20.70
2019-04-04T15:12:49.861Z,20.80
2019-04-04T15:17:51.426Z,20.80
2019-04-04T15:22:52.995Z,20.80
2019-04-04T15:27:56.493Z,20.70
2019-04-04T15:32:57.995Z,20.70
2019-04-04T15:37:59.567Z,20.70
2019-04-04T15:43:01.072Z,20.60
2019-04-04T15:48:02.703Z,20.70
2019-04-04T15:53:04.182Z,20.70
2019-04-04T15:58:05.768Z,20.70
2019-04-04T16:03:07.385Z,20.60
2019-04-04T16:08:10.664Z,20.70
2019-04-04T16:13:13.594Z,20.70
2019-04-04T16:21:54.986Z,21.10
2019-04-04T16:22:26.539Z,21.10
2019-04-04T16:22:58.185Z,21.10
2019-04-04T16:23:29.823Z,21.10
2019-04-04T16:24:01.466Z,21.10
2019-04-04T16:24:33.102Z,21.10
2019-04-04T16:25:05.136Z,21.10
2019-04-04T16:25:36.779Z,21.20
2019-04-04T16:26:08.544Z,21.20
2019-04-04T16:26:40.175Z,21.20
2019-04-04T16:27:11.713Z,21.20
2019-04-04T16:27:43.343Z,21.20
2019-04-04T16:28:15.211Z,21.20
2019-04-04T16:28:46.853Z,21.20
2019-04-04T16:29:18.389Z,21.20
2019-04-04T16:29:49.932Z,21.20
2019-04-04T16:30:21.574Z,21.10
2019-04-04T16:30:53.110Z,21.20
2019-04-04T16:31:24.677Z,21.20
2019-04-04T16:31:57.312Z,21.20
2019-04-04T16:32:28.857Z,21.20
2019-04-04T16:33:00.387Z,21.30
2019-04-04T16:33:32.142Z,21.30
2019-04-04T16:34:03.681Z,21.30
2019-04-04T16:34:35.528Z,21.40
2019-04-04T16:35:07.206Z,21.40
2019-04-04T16:35:38.936Z,21.40
2019-04-04T16:41:17.766Z,21.50
2019-04-04T16:46:19.298Z,21.20
2019-04-04T16:51:20.897Z,21.10
2019-04-04T16:56:22.467Z,21.00
2019-04-04T17:01:25.628Z,20.90
2019-04-04T17:06:27.561Z,21.00
2019-04-04T17:11:29.315Z,20.90
2019-04-04T17:16:31.088Z,20.90
2019-04-04T17:21:32.701Z,20.90
2019-04-04T17:26:34.358Z,20.90
2019-04-04T17:31:35.898Z,20.90
2019-04-04T17:36:38.012Z,20.90
2019-04-04T17:41:40.275Z,20.90
2019-04-04T17:46:42.304Z,20.90
2019-04-04T17:51:44.386Z,20.90
2019-04-04T17:56:46.607Z,21.00
2019-04-04T18:01:49.405Z,21.00
2019-04-04T18:06:50.937Z,20.90
2019-04-04T18:11:52.540Z,20.80
2019-04-04T18:16:54.503Z,20.80
2019-04-04T18:21:56.292Z,20.70
2019-04-04T18:26:58.030Z,20.80
2019-04-04T18:31:59.665Z,20.80
2019-04-04T18:37:01.441Z,20.70
2019-04-04T18:42:03.414Z,20.70
2019-04-04T18:47:05.059Z,20.70
2019-04-04T18:52:06.809Z,20.70
2019-04-04T18:57:08.399Z,20.70
2019-04-04T19:02:10.070Z,20.70
2019-04-04T19:07:11.602Z,20.70
2019-04-04T19:12:13.262Z,20.70
2019-04-04T19:17:15.021Z,20.60
2019-04-04T19:22:16.835Z,20.60
2019-04-04T19:27:18.389Z,20.60
2019-04-04T19:32:20.053Z,20.60
2019-04-04T19:37:21.719Z,20.60
2019-04-04T19:42:23.503Z,20.50
2019-04-04T19:47:25.207Z,20.50
2019-04-04T19:52:26.776Z,20.50
2019-04-04T19:57:28.515Z,20.50
2019-04-04T20:02:30.115Z,20.50
2019-04-04T20:07:31.894Z,20.50
2019-04-04T20:12:33.592Z,20.50
2019-04-04T20:17:35.236Z,20.50
2019-04-04T20:22:36.902Z,20.40
2019-04-04T20:27:38.574Z,20.40
2019-04-04T20:32:40.345Z,20.40
2019-04-04T20:37:41.879Z,20.40
2019-04-04T20:42:43.435Z,20.30
2019-04-04T20:47:45.067Z,20.30
2019-04-04T20:52:46.593Z,20.30
2019-04-04T20:57:48.291Z,20.30
2019-04-04T21:02:49.925Z,20.30
2019-04-04T21:07:52.656Z,20.30
2019-04-04T21:12:54.209Z,20.30
2019-04-04T21:17:55.895Z,20.30
2019-04-04T21:22:57.670Z,20.30
2019-04-04T21:27:59.229Z,20.30
2019-04-04T21:33:00.889Z,20.30
2019-04-04T21:38:02.584Z,20.30
2019-04-04T21:43:04.175Z,20.30
2019-04-04T21:48:07.035Z,20.30
2019-04-04T21:53:08.600Z,20.30
2019-04-04T21:58:10.185Z,20.30
2019-04-04T22:03:11.868Z,20.30
2019-04-04T22:08:13.746Z,20.30
2019-04-04T22:13:15.651Z,20.30
2019-04-04T22:18:17.397Z,20.20
2019-04-04T22:23:19.165Z,20.30
2019-04-04T22:28:20.735Z,20.30
2019-04-04T22:33:23.534Z,20.20
2019-04-04T22:38:25.309Z,20.20
2019-04-04T22:43:27.078Z,20.20
2019-04-04T22:48:28.953Z,20.20
2019-04-04T22:53:30.624Z,20.20
2019-04-04T22:58:32.298Z,20.20
2019-04-04T23:03:34.070Z,20.20
2019-04-04T23:08:35.946Z,20.20
2019-04-04T23:13:38.843Z,20.20
2019-04-04T23:18:40.618Z,20.20
2019-04-04T23:23:42.393Z,20.20
2019-04-04T23:28:44.169Z,20.20
2019-04-04T23:33:45.938Z,20.20
2019-04-04T23:38:47.713Z,20.20
2019-04-04T23:43:49.485Z,20.20
2019-04-04T23:48:51.257Z,20.20
2019-04-04T23:53:53.032Z,20.10
2019-04-04T23:58:54.805Z,20.20
